Tiempo atmosférico en la estación meteorológica de Es Mercadal, Illes Balears (77 m.)



Fecha
DESCASC
Temp. máxima en grados centígrados (hora)
DESCASC
Temp. mínima en grados centígrados (hora)
DESCASC
Temp. media en grados centígrados
DESCASC
Racha de viento máxima en m/sg (hora)
DESCASC
Velocidad máxima media en intervalos de 10 minutos(hora)
DESCASC
Precipitaciones diarias en mm
DESCASC
Precipitaciones de 00:00 a 06:00 en mm
DESCASC
Precipitaciones de 06:00 a 12:00 en mm
DESCASC
Precipitaciones de 12:00 a 18:00 en mm
DESCASC
Precipitaciones de 18:00 a 24:00 en mm
DESCASC
15-08-2019 30.5 (15:20) 20.6 (04:30) 25.6 7.5 (18:40) 5 (17:50) 0 0 0 0 0
14-08-2019 29 (15:50) 18.8 (00:00) 23.9 10.83 (14:10) 6.67 (15:30) 0 0 0 0 0
13-08-2019 24.9 (12:30) 19.9 (00:00) 22.4 13.33 (10:30) 8.06 (00:10) 0 0 0 0 0
12-08-2019 25.8 (00:00) 23.3 (00:00) 24.5 12.22 (23:30) 7.78 (18:40) 0 0 0 0 0
11-08-2019 33 (14:30) 23.7 (00:00) 28.4 10.56 (13:30) 7.22 (13:30) 0 0 0 0 0
10-08-2019 31 (15:00) 23.4 (00:00) 27.2 8.06 (13:20) 5.56 (03:40) 0 0 0 0 0
09-08-2019 31.1 (13:10) 24.1 (00:00) 27.6 12.22 (16:40) 8.61 (17:20) 0 0 0 0 0
08-08-2019 32.5 (13:50) 22.8 (00:00) 27.6 8.33 (14:50) 5.56 (14:30) 0 0 0 0 0
07-08-2019 32.1 (12:30) 23.4 (00:00) 27.7 7.5 (12:40) 4.72 (13:20) 0 0 0 0 0
06-08-2019 32.5 (15:10) 22.6 (00:00) 27.6 8.61 (12:00) 5.56 (16:50) 0 0 0 0 0
05-08-2019 34.6 (13:20) 21.4 (00:00) 28 8.89 (17:10) 5.56 (16:20) 0 0 0 0 0
04-08-2019 33.8 (12:30) 20.1 (00:00) 26.9 9.72 (14:30) 6.11 (14:10) 0 0 0 0 0
03-08-2019 30.9 (14:20) 21.1 (00:00) 26 9.44 (09:50) 6.94 (09:50) 0 0 0 0 0
02-08-2019 27.8 (14:30) 22.6 (00:00) 25.2 10.83 (12:10) 7.22 (09:00) 0 0 0 0 0
01-08-2019 33.4 (16:20) 22.2 (00:00) 27.8 12.78 (12:00) 8.89 (12:00) 0 0 0 0 0
31-07-2019 26.3 (16:20) 22.3 (00:00) 24.3 13.06 (12:40) 9.17 (08:50) 0 0 0 0 0
30-07-2019 28.3 (13:30) 22.3 (00:00) 25.3 9.17 (11:10) 6.67 (11:10) 0 0 0 0 0
29-07-2019 31.1 (15:40) 19.4 (00:00) 25.3 8.33 (13:10) 5.56 (12:50) 0 0 0 0 0
28-07-2019 26.1 (12:40) 19.1 (00:00) 22.6 10 (00:40) 6.11 (00:40) 5.8 5.2 0 0.6 0
27-07-2019 30.8 (14:50) 21.5 (00:00) 26.1 11.11 (17:40) 7.22 (17:40) 0 0 0 0 0
26-07-2019 32.5 (15:50) 23.1 (00:00) 27.8 10 (12:30) 5.83 (11:20) 0 0 0 0 0
25-07-2019 35.2 (15:00) 22.4 (00:00) 28.8 11.39 (15:00) 6.67 (16:20) 0 0 0 0 0
24-07-2019 32.3 (15:50) 22.2 (00:00) 27.3 7.5 (16:30) 5.28 (17:20) 0 0 0 0 0
23-07-2019 34.3 (13:10) 21.8 (00:00) 28 7.22 (11:40) 5 (11:50) 0 0 0 0 0
22-07-2019 36.1 (15:10) 21.5 (00:00) 28.8 8.06 (15:50) 5.83 (15:50) 0 0 0 0 0
21-07-2019 33.9 (13:50) 21.6 (00:00) 27.8 9.72 (15:00) 6.11 (15:10) 0 0 0 0 0
20-07-2019 32.1 (15:40) 22.3 (00:00) 27.2 8.89 (13:40) 6.11 (17:40) 0 0 0 0 0
19-07-2019 30.1 (13:10) 20.5 (00:00) 25.3 8.61 (14:00) 5.56 (14:20) 0 0 0 0 0

Gráficas

Temp. máximas Temp. mínimas Temp. medias Precipitaciones Rachas de viento máximas Velocidades máximas media en intervalos de 10 minutos

Datos horarios

Fecha y hora oficial Temperatura (ºC) Velocidad del viento (km/h) Dirección del viento Racha (km/h) Dirección de racha Precipitación (mm) Presión (hPa) Tendencia (hPa) Humedad (%)
2019-08-17 23:00:00 24.3 15 Sur 26 Sur 0 -- -- 85
2019-08-17 22:00:00 24.7 14 Sur 26 Sur 0 -- -- 82
2019-08-17 21:00:00 25.2 16 Sur 28 Sur 0 -- -- 78
2019-08-17 20:00:00 26.2 20 Sur 31 Sur 0 -- -- 72
2019-08-17 19:00:00 28 17 Sur 30 Sur 0 -- -- 61
2019-08-17 18:00:00 28.8 19 Sur 32 Sur 0 -- -- 56
2019-08-17 17:00:00 30.1 17 Sur 32 Sudoeste 0 -- -- 51
2019-08-17 16:00:00 30.7 18 Sur 31 Sur 0 -- -- 47
2019-08-17 15:00:00 30.8 20 Sur 32 Sudoeste 0 -- -- 44
2019-08-17 14:00:00 31.2 17 Sur 29 Sudoeste 0 -- -- 40
2019-08-17 13:00:00 30.8 15 Sudoeste 28 Sur 0 -- -- 42
2019-08-17 12:00:00 30.2 12 Sudoeste 23 Sur 0 -- -- 46
2019-08-17 11:00:00 28.6 16 Sudoeste 23 Sur 0 -- -- 56
2019-08-17 10:00:00 27.2 13 Sur 22 Sur 0 -- -- 61
2019-08-17 09:00:00 25.8 12 Sudoeste 17 Sudoeste 0 -- -- 71
2019-08-17 08:00:00 23.7 7 Sudoeste 12 Sudoeste 0 -- -- 82
2019-08-17 07:00:00 22.6 10 Sur 15 Sur 0 -- -- 84
2019-08-17 06:00:00 22.8 11 Sudoeste 15 Sudoeste 0 -- -- 83
2019-08-17 05:00:00 22.5 4 Sur 11 Sudoeste 0 -- -- 83
2019-08-17 04:00:00 22.9 9 Sudoeste 14 Sur 0 -- -- 82
2019-08-17 03:00:00 22.5 4 Sudoeste 9 Sudeste 0 -- -- 82
2019-08-17 02:00:00 22.8 6 Sur 8 Sur 0 -- -- 81
2019-08-17 01:00:00 23.1 7 Sur 9 Sur 0 -- -- 80
2019-08-17 00:00:00 23.5 0 Calma 8 Sur 0 -- -- 77
2019-08-16 23:00:00 24 4 Sudoeste 6 Sur 0 -- -- 75
2019-08-16 22:00:00 24.6 4 Sur 13 Sudoeste 0 -- -- 71
2019-08-16 21:00:00 25.2 9 Sudoeste 19 Sudoeste 0 -- -- 68
2019-08-16 20:00:00 26.4 13 Sudoeste 21 Sudoeste 0 -- -- 63
2019-08-16 19:00:00 29.2 6 Noroeste 15 Sudoeste 0 -- -- 50
2019-08-16 18:00:00 29.4 11 Norte 18 Noroeste 0 -- -- 47
2019-08-16 17:00:00 29.7 8 Norte 22 Norte 0 -- -- 49
2019-08-16 16:00:00 29.6 7 Norte 23 Nordeste 0 -- -- 48
2019-08-16 15:00:00 29.5 9 Norte 22 Norte 0 -- -- 48
2019-08-16 14:00:00 28.6 12 Norte 23 Sur 0 -- -- 50
2019-08-16 13:00:00 29 15 Sudoeste 27 Sudoeste 0 -- -- 49
2019-08-16 12:00:00 28.5 5 Norte 16 Norte 0 -- -- 48
2019-08-16 11:00:00 26.4 9 Norte 19 Nordeste 0 -- -- 56
2019-08-16 10:00:00 25.5 10 Norte 20 Nordeste 0 -- -- 57
2019-08-16 09:00:00 24.2 15 Nordeste 19 Nordeste 0 -- -- 63
2019-08-16 08:00:00 21.5 0 Calma 3 Oeste 0 -- -- 78
2019-08-16 07:00:00 20.4 0 Calma 5 Noroeste 0 -- -- 80
2019-08-16 06:00:00 20.1 3 Norte 4 Norte 0 -- -- 81
2019-08-16 05:00:00 20.8 0 Calma 3 Oeste 0 -- -- 78
2019-08-16 04:00:00 20.9 0 Calma 3 Noroeste 0 -- -- 78
2019-08-16 03:00:00 21.1 0 Calma 5 Oeste 0 -- -- 78
2019-08-16 02:00:00 21.4 0 Calma 4 Oeste 0 -- -- 79
2019-08-16 01:00:00 21.7 0 Calma 7 Nordeste 0 -- -- 79
2019-08-16 00:00:00 22.2 3 Norte 9 Nordeste 0 -- -- 77
2019-08-15 23:00:00 22.6 6 Nordeste 15 Este 0 -- -- 77
2019-08-15 22:00:00 23 8 Este 14 Este 0 -- -- 76
2019-08-15 21:00:00 23.7 9 Nordeste 21 Este 0 -- -- 71
2019-08-15 20:00:00 25 12 Este 23 Nordeste 0 -- -- 66
2019-08-15 19:00:00 25.8 14 Este 27 Nordeste 0 -- -- 63
2019-08-15 18:00:00 26.2 15 Nordeste 25 Nordeste 0 -- -- 60
2019-08-15 17:00:00 26.8 12 Nordeste 24 Nordeste 0 -- -- 59
2019-08-15 16:00:00 29.3 10 Nordeste 24 Sudoeste 0 -- -- 49
2019-08-15 15:00:00 29.4 13 Sur 24 Sur 0 -- -- 51
2019-08-15 14:00:00 27.7 9 Norte 22 Sudoeste 0 -- -- 45
2019-08-15 13:00:00 30.1 12 Este 21 Nordeste 0 -- -- 46
2019-08-15 12:00:00 28.7 14 Nordeste 24 Nordeste 0 -- -- 49
2019-08-15 11:00:00 27.9 11 Nordeste 19 Nordeste 0 -- -- 51
2019-08-15 10:00:00 26.6 6 Norte 17 Norte 0 -- -- 62
2019-08-15 09:00:00 24.6 7 Norte 13 Norte 0 -- -- 77
2019-08-15 08:00:00 22.6 0 Calma 6 Oeste 0 -- -- 90
2019-08-15 07:00:00 20.9 4 Sudoeste 8 Sudoeste 0 -- -- 90
2019-08-15 06:00:00 20.9 5 Sudoeste 6 Sudoeste 0 -- -- 90
2019-08-15 05:00:00 21 0 Calma 6 Oeste 0 -- -- 89
2019-08-15 04:00:00 21.2 4 Sudoeste 6 Sur 0 -- -- 89
2019-08-15 03:00:00 21.4 4 Sudoeste 5 Sudoeste 0 -- -- 85
2019-08-15 02:00:00 21.4 2 Sudoeste 5 Sudoeste 0 -- -- 82
2019-08-15 01:00:00 21.1 3 Sudoeste 5 Sudoeste 0 -- -- 80
2019-08-15 00:00:00 21.4 5 Sur 6 Sur 0 -- -- 79
2019-08-14 23:00:00 21.9 2 Sudoeste 4 Sudoeste 0 -- -- 76
2019-08-14 22:00:00 23.3 0 Calma 9 Noroeste 0 -- -- 70
2019-08-14 21:00:00 24.2 8 Noroeste 17 Sudoeste 0 -- -- 67
2019-08-14 20:00:00 25.9 14 Sudoeste 24 Sudoeste 0 -- -- 64
2019-08-14 19:00:00 27.3 12 Sudoeste 25 Sudoeste 0 -- -- 56
2019-08-14 18:00:00 26.1 13 Noroeste 29 Norte 0 -- -- 59
2019-08-14 17:00:00 27.6 14 Noroeste 28 Norte 0 -- -- 56
2019-08-14 16:00:00 27.6 17 Oeste 37 Oeste 0 -- -- 57
2019-08-14 15:00:00 28.7 21 Oeste 39 Oeste 0 -- -- 53
2019-08-14 14:00:00 28.1 22 Oeste 37 Oeste 0 -- -- 52
2019-08-14 13:00:00 28.2 19 Oeste 32 Oeste 0 -- -- 52
2019-08-14 12:00:00 27 17 Oeste 30 Oeste 0 -- -- 52
2019-08-14 11:00:00 25.9 14 Oeste 27 Oeste 0 -- -- 58
2019-08-14 10:00:00 24.5 11 Oeste 17 Oeste 0 -- -- 63
2019-08-14 09:00:00 24.2 2 Oeste 4 Oeste 0 -- -- 62
2019-08-14 08:00:00 21.3 2 Sudeste 6 Sudoeste 0 -- -- 69
2019-08-14 07:00:00 19.1 5 Sudoeste 6 Sudoeste 0 -- -- 74
2019-08-14 06:00:00 19.6 2 Sudoeste 5 Sudoeste 0 -- -- 70
2019-08-14 05:00:00 19.5 2 Sur 5 Sudoeste 0 -- -- 69
2019-08-14 04:00:00 18.8 4 Sudoeste 5 Sudoeste 0 -- -- 72
2019-08-14 03:00:00 19.1 4 Oeste 4 Sudoeste 0 -- -- 72
2019-08-14 02:00:00 19.6 0 Calma 9 Norte 0 -- -- 73
2019-08-14 01:00:00 19.8 4 Norte 6 Norte 0 -- -- 72
2019-08-14 00:00:00 19.9 3 Nordeste 9 Norte 0 -- -- 72
2019-08-13 23:00:00 20.3 3 Norte 5 Norte 0 -- -- 69
2019-08-13 22:00:00 21.3 0 Calma 12 Norte 0 -- -- 67
2019-08-13 21:00:00 22.2 9 Norte 19 Norte 0 -- -- 64
2019-08-13 20:00:00 23 13 Norte 26 Nordeste 0 -- -- 62
2019-08-13 19:00:00 23.4 18 Nordeste 28 Norte 0 -- -- 59
2019-08-13 18:00:00 24 20 Norte 35 Nordeste 0 -- -- 55
2019-08-13 17:00:00 24.5 22 Norte 32 Norte 0 -- -- 52
2019-08-13 16:00:00 24.5 22 Norte 38 Norte 0 -- -- 53
2019-08-13 15:00:00 24.3 21 Norte 34 Norte 0 -- -- 53
2019-08-13 14:00:00 23.6 23 Norte 35 Norte 0 -- -- 55
2019-08-13 13:00:00 24.6 22 Norte 40 Norte 0 -- -- 51
2019-08-13 12:00:00 24.6 25 Nordeste 41 Nordeste 0 -- -- 49
2019-08-13 11:00:00 23.6 23 Nordeste 48 Norte 0 -- -- 55
2019-08-13 10:00:00 23.6 26 Norte 46 Norte 0 -- -- 54
2019-08-13 09:00:00 22.8 24 Nordeste 47 Norte 0 -- -- 56
2019-08-13 08:00:00 22.7 26 Norte 40 Nordeste 0 -- -- 60
2019-08-13 07:00:00 22 22 Norte 45 Nordeste 0 -- -- 62
2019-08-13 06:00:00 22.1 28 Norte 45 Nordeste 0 -- -- 64
2019-08-13 05:00:00 22.2 27 Norte 43 Nordeste 0 -- -- 63
2019-08-13 04:00:00 22.4 24 Norte 43 Norte 0 -- -- 66
2019-08-13 03:00:00 22.9 25 Norte 47 Nordeste 0 -- -- 59
2019-08-13 02:00:00 23.1 22 Norte 45 Norte 0 -- -- 61
2019-08-13 01:00:00 23.4 26 Norte 47 Norte 0 -- -- 65
2019-08-13 00:00:00 23.6 23 Norte 44 Norte 0 -- -- 66
2019-08-12 23:00:00 23.8 23 Norte 40 Nordeste 0 -- -- 64
2019-08-12 22:00:00 23.9 26 Nordeste 41 Nordeste 0 -- -- 64
2019-08-12 21:00:00 23.8 23 Norte 36 Norte 0 -- -- 64
2019-08-12 20:00:00 24.1 22 Nordeste 42 Nordeste 0 -- -- 62
2019-08-12 19:00:00 24.7 25 Norte 42 Norte 0 -- -- 64
2019-08-12 18:00:00 25.2 27 Norte 41 Nordeste 0 -- -- 65
2019-08-12 17:00:00 25.6 24 Norte 37 Norte 0 -- -- 65
2019-08-12 16:00:00 24.5 21 Norte 32 Norte 0 -- -- 73
2019-08-12 15:00:00 23.8 18 Norte 27 Norte 0 -- -- 78
2019-08-12 14:00:00 23.3 15 Norte 40 Nordeste 0 -- -- 83
2019-08-12 13:00:00 24.1 23 Nordeste 35 Nordeste 0 -- -- 80
2019-08-12 12:00:00 24.4 18 Nordeste 30 Nordeste 0 -- -- 80
2019-08-12 11:00:00 24.3 25 Nordeste 34 Nordeste 0 -- -- 82
2019-08-12 10:00:00 24.6 23 Nordeste 36 Nordeste 0 -- -- 82
2019-08-12 09:00:00 24.7 23 Nordeste 33 Nordeste 0 -- -- 79
2019-08-12 08:00:00 23.9 19 Nordeste 38 Norte 0 -- -- 81
2019-08-12 07:00:00 24 25 Norte 40 Norte 0 -- -- 81
2019-08-12 06:00:00 24.8 19 Norte 33 Nordeste 0 -- -- 84
2019-08-12 05:00:00 25 14 Nordeste 25 Nordeste 0 -- -- 88
2019-08-12 04:00:00 24.9 5 Nordeste 9 Nordeste 0 -- -- 90
2019-08-12 03:00:00 25.2 5 Oeste 11 Sudoeste 0 -- -- 89
2019-08-12 02:00:00 25.3 5 Oeste 8 Oeste 0 -- -- 88
2019-08-12 01:00:00 25.6 3 Nordeste 10 Nordeste 0 -- -- 86
2019-08-12 00:00:00 25.8 8 Nordeste 14 Este 0 -- -- 87
2019-08-11 23:00:00 26.4 5 Este 9 Este 0 -- -- 85
2019-08-11 22:00:00 26.6 6 Sur 10 Sur 0 -- -- 83
2019-08-11 21:00:00 26.9 8 Sur 12 Sudoeste 0 -- -- 79
2019-08-11 20:00:00 28.4 9 Sudoeste 18 Sur 0 -- -- 69
2019-08-11 19:00:00 29.2 11 Sur 20 Sur 0 -- -- 63
2019-08-11 18:00:00 31.1 13 Sur 24 Sudoeste 0 -- -- 46
2019-08-11 17:00:00 31.7 15 Sur 27 Sur 0 -- -- 44
2019-08-11 16:00:00 32.4 16 Sudoeste 30 Sudoeste 0 -- -- 33
2019-08-11 15:00:00 31.9 20 Sur 33 Sur 0 -- -- 44
2019-08-11 14:00:00 32.4 23 Sudoeste 38 Sur 0 -- -- 38
2019-08-11 13:00:00 31.8 23 Sur 32 Sur 0 -- -- 45
2019-08-11 12:00:00 31.9 18 Sur 28 Sudeste 0 -- -- 39
2019-08-11 11:00:00 31.6 15 Sur 28 Sur 0 -- -- 47
2019-08-11 10:00:00 28.7 12 Sudeste 19 Sudeste 0 -- -- 68
2019-08-11 09:00:00 26.2 6 Sudeste 17 Sudeste 0 -- -- 88
2019-08-11 08:00:00 24.3 0 Calma 5 Nordeste 0 -- -- 92
2019-08-11 07:00:00 24.2 4 Sudeste 7 Sudeste 0 -- -- 93
2019-08-11 06:00:00 23.8 3 Oeste 10 Sudeste 0 -- -- 92
2019-08-11 05:00:00 24.1 0 Calma 6 Nordeste 0 -- -- 92
2019-08-11 04:00:00 23.9 0 Calma 6 Nordeste 0 -- -- 92
2019-08-11 03:00:00 24 3 Nordeste 7 Nordeste 0 -- -- 92
2019-08-11 02:00:00 24.2 3 Norte 4 Norte 0 -- -- 91
2019-08-11 01:00:00 24.6 0 Calma 10 Sur 0 -- -- 90
2019-08-11 00:00:00 25.2 4 Sudeste 12 Sudeste 0 -- -- 89
2019-08-10 23:00:00 25.1 4 Oeste 6 Norte 0 -- -- 87
2019-08-10 22:00:00 25.9 0 Calma 10 Este 0 -- -- 85
2019-08-10 21:00:00 26.4 7 Nordeste 14 Este 0 -- -- 83
2019-08-10 20:00:00 27.3 11 Nordeste 18 Nordeste 0 -- -- 79
2019-08-10 19:00:00 28 15 Nordeste 23 Nordeste 0 -- -- 77
2019-08-10 18:00:00 28.8 17 Nordeste 26 Norte 0 -- -- 73
2019-08-10 17:00:00 30.1 15 Norte 23 Norte 0 -- -- 68
2019-08-10 16:00:00 30.7 14 Norte 25 Este 0 -- -- 65
2019-08-10 15:00:00 31 13 Nordeste 24 Nordeste 0 -- -- 63
2019-08-10 14:00:00 29.7 14 Nordeste 29 Nordeste 0 -- -- 68
2019-08-10 13:00:00 29.6 15 Nordeste 28 Nordeste 0 -- -- 67
2019-08-10 12:00:00 29.5 15 Nordeste 25 Nordeste 0 -- -- 68
2019-08-10 11:00:00 30 15 Nordeste 26 Nordeste 0 -- -- 56
2019-08-10 10:00:00 28.7 15 Nordeste 21 Nordeste 0 -- -- 65
2019-08-10 09:00:00 26.8 0 Calma 6 Sudoeste 0 -- -- 86
2019-08-10 08:00:00 24.8 6 Sudoeste 9 Sudoeste 0 -- -- 92
2019-08-10 07:00:00 23.9 3 Sudeste 17 Sur 0 -- -- 92
2019-08-10 06:00:00 24.4 11 Sur 22 Sudoeste 0 -- -- 92
2019-08-10 05:00:00 24.8 19 Sudoeste 25 Sur 0 -- -- 92
2019-08-10 04:00:00 24.8 15 Sur 27 Sur 0 -- -- 91
2019-08-10 03:00:00 24.9 15 Sur 20 Sur 0 -- -- 91
2019-08-10 02:00:00 25 10 Sur 26 Sudoeste 0 -- -- 91
2019-08-10 01:00:00 25 17 Sudoeste 28 Sudoeste 0 -- -- 91
2019-08-10 00:00:00 25.2 15 Sudoeste 23 Sudoeste 0 -- -- 90
2019-08-09 23:00:00 25.4 11 Sur 23 Sur 0 -- -- 89
2019-08-09 22:00:00 25.6 14 Sur 28 Sur 0 -- -- 87
2019-08-09 21:00:00 26 17 Sur 28 Sur 0 -- -- 84
2019-08-09 20:00:00 27.1 23 Sur 34 Sur 0 -- -- 79
2019-08-09 19:00:00 28.7 25 Sudoeste 37 Sudoeste 0 -- -- 68
2019-08-09 18:00:00 28.9 31 Sur 42 Sur 0 -- -- 68
2019-08-09 17:00:00 30.5 24 Sur 44 Sudoeste 0 -- -- 60
2019-08-09 16:00:00 30.2 28 Sur 40 Sur 0 -- -- 63
2019-08-09 15:00:00 30.6 24 Sur 39 Sur 0 -- -- 61
2019-08-09 14:00:00 30.5 27 Sur 40 Sudoeste 0 -- -- 56
2019-08-09 13:00:00 30.8 24 Sur 36 Sur 0 -- -- 55
2019-08-09 12:00:00 29.8 24 Sudoeste 35 Sur 0 -- -- 59
2019-08-09 11:00:00 30 20 Sur 29 Sur 0 -- -- 58
2019-08-09 10:00:00 28.7 17 Sur 24 Sur 0 -- -- 69
2019-08-09 09:00:00 27 12 Sur 19 Sur 0 -- -- 77
2019-08-09 08:00:00 25.1 9 Sur 15 Sur 0 -- -- 90
2019-08-09 07:00:00 24.1 6 Sur 15 Sudoeste 0 -- -- 90
2019-08-09 06:00:00 24.5 12 Sudoeste 16 Sudoeste 0 -- -- 89
2019-08-09 05:00:00 24.7 9 Sur 25 Sur 0 -- -- 88
2019-08-09 04:00:00 24.7 16 Sur 24 Sur 0 -- -- 89
2019-08-09 03:00:00 24.7 6 Sur 19 Sur 0 -- -- 89
2019-08-09 02:00:00 24.9 12 Sur 22 Sur 0 -- -- 89
2019-08-09 01:00:00 25.2 13 Sur 23 Sur 0 -- -- 88
2019-08-09 00:00:00 25.3 11 Sur 21 Sur 0 -- -- 88
2019-08-08 23:00:00 25.5 12 Sur 19 Sur 0 -- -- 87
2019-08-08 22:00:00 25.9 6 Sur 13 Sur 0 -- -- 85
2019-08-08 21:00:00 26.5 8 Sur 16 Sur 0 -- -- 82
2019-08-08 20:00:00 28.6 12 Sur 18 Sudoeste 0 -- -- 70
2019-08-08 19:00:00 30.3 12 Sudoeste 21 Sur 0 -- -- 61
2019-08-08 18:00:00 30.1 15 Sudoeste 26 Sudoeste 0 -- -- 62
2019-08-08 17:00:00 31.1 17 Sudoeste 25 Sur 0 -- -- 56
2019-08-08 16:00:00 31.1 17 Sudoeste 28 Sur 0 -- -- 55
2019-08-08 15:00:00 31.1 17 Sudoeste 30 Sur 0 -- -- 58
2019-08-08 14:00:00 31.8 17 Sur 27 Sur 0 -- -- 56
2019-08-08 13:00:00 31.4 15 Sudoeste 26 Sur 0 -- -- 56
2019-08-08 12:00:00 31 12 Sudoeste 22 Sudoeste 0 -- -- 59
2019-08-08 11:00:00 30.1 10 Sur 19 Sur 0 -- -- 62
2019-08-08 10:00:00 28.9 5 Noroeste 14 Nordeste 0 -- -- 65
2019-08-08 09:00:00 26.9 9 Nordeste 13 Nordeste 0 -- -- 71
2019-08-08 08:00:00 24.6 2 Nordeste 4 Nordeste 0 -- -- 88
2019-08-08 07:00:00 23.2 2 Nordeste 6 Norte 0 -- -- 90
2019-08-08 06:00:00 23.3 4 Norte 8 Nordeste 0 -- -- 90
2019-08-08 05:00:00 23.4 2 Sur 5 Sudoeste 0 -- -- 91
2019-08-08 04:00:00 22.8 2 Sudoeste 7 Sudoeste 0 -- -- 91
2019-08-08 03:00:00 23.2 3 Sur 7 Sur 0 -- -- 91
2019-08-08 02:00:00 23.3 4 Sur 10 Sudeste 0 -- -- 90
2019-08-08 01:00:00 23.8 4 Sur 6 Oeste 0 -- -- 89
2019-08-08 00:00:00 24.3 0 Calma 7 Oeste 0 -- -- 89
2019-08-07 23:00:00 24.6 4 Noroeste 6 Oeste 0 -- -- 86
2019-08-07 22:00:00 25.5 5 Norte 16 Norte 0 -- -- 84
2019-08-07 21:00:00 26.1 10 Norte 15 Norte 0 -- -- 79
2019-08-07 20:00:00 27.2 8 Norte 17 Norte 0 -- -- 74
2019-08-07 19:00:00 27.9 11 Norte 19 Norte 0 -- -- 71
2019-08-07 18:00:00 28.8 13 Norte 21 Norte 0 -- -- 66
2019-08-07 17:00:00 29.7 12 Norte 21 Norte 0 -- -- 64
2019-08-07 16:00:00 28.9 14 Norte 21 Noroeste 0 -- -- 68
2019-08-07 15:00:00 29.7 7 Norte 20 Nordeste 0 -- -- 66
2019-08-07 14:00:00 28.2 13 Norte 27 Norte 0 -- -- 72
2019-08-07 13:00:00 30.1 14 Norte 27 Sudeste 0 -- -- 64
2019-08-07 12:00:00 31 15 Sudoeste 23 Oeste 0 -- -- 50
2019-08-07 11:00:00 28.9 15 Sudoeste 24 Sudoeste 0 -- -- 65
2019-08-07 10:00:00 28.4 9 Sur 18 Sudeste 0 -- -- 72
2019-08-07 09:00:00 25.3 5 Este 10 Nordeste 0 -- -- 84
2019-08-07 08:00:00 24 0 Calma 9 Nordeste 0 -- -- 91
2019-08-07 07:00:00 23.6 2 Norte 13 Sudoeste 0 -- -- 90
2019-08-07 06:00:00 24.1 12 Sudoeste 14 Sudoeste 0 -- -- 90
2019-08-07 05:00:00 24.3 9 Sudoeste 19 Sudoeste 0 -- -- 90
2019-08-07 04:00:00 24.3 9 Sudoeste 15 Sur 0 -- -- 91
2019-08-07 03:00:00 24.5 7 Sur 19 Sur 0 -- -- 90
2019-08-07 02:00:00 24.3 8 Sudoeste 12 Sur 0 -- -- 88
2019-08-07 01:00:00 24.2 6 Sur 12 Sur 0 -- -- 85
2019-08-07 00:00:00 23.7 4 Sudoeste 6 Sur 0 -- -- 82
2019-08-06 23:00:00 24.1 3 Oeste 7 Nordeste 0 -- -- 80
2019-08-06 22:00:00 25.4 3 Nordeste 7 Norte 0 -- -- 79
2019-08-06 21:00:00 25.7 6 Norte 15 Norte 0 -- -- 76
2019-08-06 20:00:00 27 11 Norte 19 Norte 0 -- -- 72
2019-08-06 19:00:00 28.8 12 Norte 25 Norte 0 -- -- 67
2019-08-06 18:00:00 29.7 17 Norte 27 Norte 0 -- -- 63
2019-08-06 17:00:00 30.4 17 Norte 29 Norte 0 -- -- 56
2019-08-06 16:00:00 29.7 18 Norte 30 Norte 0 -- -- 67
2019-08-06 15:00:00 32.3 10 Sudoeste 24 Sur 0 -- -- 48
2019-08-06 14:00:00 30.2 17 Sudoeste 28 Sudoeste 0 -- -- 62
2019-08-06 13:00:00 30.4 18 Sudoeste 30 Sudoeste 0 -- -- 62
2019-08-06 12:00:00 30.4 19 Sur 31 Sur 0 -- -- 56
2019-08-06 11:00:00 30.2 16 Sur 28 Sudeste 0 -- -- 61
2019-08-06 10:00:00 28.7 14 Sur 24 Sur 0 -- -- 68
2019-08-06 09:00:00 26.3 9 Sudeste 17 Sudeste 0 -- -- 83
2019-08-06 08:00:00 24.5 4 Sudeste 12 Este 0 -- -- 91
2019-08-06 07:00:00 22.9 2 Sudoeste 7 Norte 0 -- -- 93
2019-08-06 06:00:00 23.4 4 Norte 9 Sudeste 0 -- -- 90
2019-08-06 05:00:00 23.9 7 Sur 12 Sur 0 -- -- 89
2019-08-06 04:00:00 23.9 9 Sudeste 15 Sudeste 0 -- -- 88
2019-08-06 03:00:00 24.1 9 Sudeste 12 Sudeste 0 -- -- 86
2019-08-06 02:00:00 24.4 10 Sur 15 Sur 0 -- -- 85
2019-08-06 01:00:00 24.5 6 Sur 12 Sur 0 -- -- 82
2019-08-06 00:00:00 24.8 9 Sudeste 19 Sudeste 0 -- -- 79
2019-08-05 23:00:00 25.4 13 Sudeste 19 Sudeste 0 -- -- 73
2019-08-05 22:00:00 26.4 13 Sudeste 18 Sudeste 0 -- -- 54
2019-08-05 21:00:00 28.3 12 Sur 21 Sur 0 -- -- 36
2019-08-05 20:00:00 30.6 14 Sur 27 Sur 0 -- -- 27
2019-08-05 19:00:00 31.6 16 Sudeste 26 Sudeste 0 -- -- 30
2019-08-05 18:00:00 32.2 17 Sudeste 32 Sur 0 -- -- 31
2019-08-05 17:00:00 34.2 15 Sur 28 Sur 0 -- -- 24
2019-08-05 16:00:00 34.5 15 Sudeste 32 Sur -- -- -- 27
2019-08-05 15:00:00 34 17 Sudeste 30 Sudeste 0 -- -- 29
2019-08-05 14:00:00 34.3 14 Sudeste 27 Este 0 -- -- 29
2019-08-05 13:00:00 34.4 13 Sudeste 30 Este -- -- -- 29
2019-08-05 12:00:00 33.4 17 Este 27 Este 0 -- -- 30
2019-08-05 11:00:00 32 12 Sudeste 21 Sudeste 0 -- -- 37
2019-08-05 10:00:00 30.2 7 Sudeste 17 Sudeste 0 -- -- 39
2019-08-05 09:00:00 26.8 9 Sudeste 17 Sudeste 0 -- -- 61
2019-08-05 08:00:00 24.8 8 Sur 15 Sudeste 0 -- -- 80
2019-08-05 07:00:00 21.9 2 Sudoeste 7 Oeste 0 -- -- 89
2019-08-05 06:00:00 21.9 0 Calma 8 Sur 0 -- -- 87
2019-08-05 05:00:00 21.7 4 Sudeste 6 Sudeste 0 -- -- 87
2019-08-05 04:00:00 22.5 3 Sudoeste 8 Sur 0 -- -- 85
2019-08-05 03:00:00 23.2 7 Sudeste 9 Sudeste 0 -- -- 84
2019-08-05 02:00:00 23.1 4 Sur 8 Sudoeste 0 -- -- 80
2019-08-05 01:00:00 23.5 6 Sudoeste 8 Sur 0 -- -- 78
2019-08-05 00:00:00 23.5 4 Oeste 9 Sur 0 -- -- 76
2019-08-04 23:00:00 24.9 3 Sur 12 Sudeste 0 -- -- 70
2019-08-04 22:00:00 25.5 3 Sur 17 Sudeste 0 -- -- 64
2019-08-04 21:00:00 26.7 9 Sur 18 Sur 0 -- -- 58
2019-08-04 20:00:00 29.1 11 Sur 24 Sudoeste 0 -- -- 49
2019-08-04 19:00:00 30.4 17 Sur 25 Sudoeste 0 -- -- 41
2019-08-04 18:00:00 30.7 17 Sudoeste 26 Sudoeste 0 -- -- 41
2019-08-04 17:00:00 31.8 15 Sur 30 Sudoeste 0 -- -- 36
2019-08-04 16:00:00 31.9 18 Sur 29 Sur 0 -- -- 34
2019-08-04 15:00:00 33 17 Sur 35 Sur 0 -- -- 31
2019-08-04 14:00:00 32.4 21 Sudoeste 33 Sudoeste 0 -- -- 32
2019-08-04 13:00:00 33 14 Sur 23 Sudoeste 0 -- -- 29
2019-08-04 12:00:00 33.2 10 Noroeste 21 Este 0 -- -- 30
2019-08-04 11:00:00 32.9 7 Sudeste 15 Sudeste 0 -- -- 27
2019-08-04 10:00:00 30.5 4 Norte 9 Nordeste 0 -- -- 31
2019-08-04 09:00:00 27.5 2 Noroeste 8 Nordeste 0 -- -- 47
2019-08-04 08:00:00 23 5 Norte 8 Norte 0 -- -- 68
2019-08-04 07:00:00 20.1 5 Oeste 7 Oeste 0 -- -- 79
2019-08-04 06:00:00 21.7 3 Sudoeste 4 Sudeste 0 -- -- 81
2019-08-04 05:00:00 22.8 5 Sur 9 Sudoeste 0 -- -- 79
2019-08-04 04:00:00 23.3 7 Sudoeste 11 Sudoeste 0 -- -- 76
2019-08-04 03:00:00 23 6 Sur 12 Sur 0 -- -- 73
2019-08-04 02:00:00 23.5 5 Sudoeste 12 Sur 0 -- -- 69
2019-08-04 01:00:00 23.8 8 Sur 10 Sur 0 -- -- 59
2019-08-04 00:00:00 24.2 5 Sudoeste 15 Sur 0 -- -- 55
2019-08-03 23:00:00 24.6 6 Sur 8 Sudeste 0 -- -- 55
2019-08-03 22:00:00 25.4 6 Sur 13 Sur 0 -- -- 53
2019-08-03 21:00:00 26.6 6 Sudeste 12 Nordeste 0 -- -- 51
2019-08-03 20:00:00 28.6 8 Nordeste 21 Nordeste 0 -- -- 44
2019-08-03 19:00:00 29.4 14 Nordeste 22 Nordeste 0 -- -- 39
2019-08-03 18:00:00 29.7 11 Nordeste 22 Nordeste 0 -- -- 41
2019-08-03 17:00:00 29.6 14 Nordeste 22 Nordeste 0 -- -- 45
2019-08-03 16:00:00 29.6 14 Norte 24 Norte 0 -- -- 46
2019-08-03 15:00:00 30.6 13 Norte 23 Norte 0 -- -- 42
2019-08-03 14:00:00 30 15 Nordeste 26 Norte 0 -- -- 40
2019-08-03 13:00:00 29.8 14 Norte 25 Norte 0 -- -- 43
2019-08-03 12:00:00 29.4 10 Norte 22 Norte 0 -- -- 47
2019-08-03 11:00:00 28.1 13 Norte 27 Norte 0 -- -- 52
2019-08-03 10:00:00 27.1 20 Norte 34 Norte 0 -- -- 53
2019-08-03 09:00:00 26 18 Norte 24 Norte 0 -- -- 68
2019-08-03 08:00:00 23.9 10 Norte 15 Norte 0 -- -- 79
2019-08-03 07:00:00 22 6 Norte 9 Norte 0 -- -- 79
2019-08-03 06:00:00 21.9 5 Norte 7 Norte 0 -- -- 71
2019-08-03 05:00:00 21.3 3 Nordeste 4 Nordeste 0 -- -- 70
2019-08-03 04:00:00 21.6 3 Sudoeste 4 Sudoeste 0 -- -- 69
2019-08-03 03:00:00 21.7 4 Sudoeste 7 Sudoeste 0 -- -- 69
2019-08-03 02:00:00 21.6 4 Sudoeste 6 Sur 0 -- -- 73
2019-08-03 01:00:00 21.7 3 Sudoeste 5 Sudoeste 0 -- -- 73
2019-08-03 00:00:00 22.6 0 Calma 5 Norte 0 -- -- 69
2019-08-02 23:00:00 23.1 4 Norte 8 Norte 0 -- -- 68
2019-08-02 22:00:00 23.6 5 Nordeste 14 Norte 0 -- -- 67
2019-08-02 21:00:00 24.4 10 Norte 20 Nordeste 0 -- -- 64
2019-08-02 20:00:00 25.3 15 Nordeste 22 Norte 0 -- -- 62
2019-08-02 19:00:00 26.4 17 Nordeste 26 Nordeste 0 -- -- 54
2019-08-02 18:00:00 26.8 17 Nordeste 26 Nordeste 0 -- -- 49
2019-08-02 17:00:00 26.8 18 Nordeste 29 Nordeste 0 -- -- 54
2019-08-02 16:00:00 27.3 19 Nordeste 32 Nordeste 0 -- -- 56
2019-08-02 15:00:00 27.1 19 Nordeste 29 Nordeste 0 -- -- 58
2019-08-02 14:00:00 27 20 Nordeste 30 Nordeste 0 -- -- 56
2019-08-02 13:00:00 27.1 18 Nordeste 39 Norte 0 -- -- 58
2019-08-02 12:00:00 26.7 24 Norte 38 Norte 0 -- -- 57
2019-08-02 11:00:00 26.6 22 Norte 33 Nordeste 0 -- -- 57
2019-08-02 10:00:00 25.8 26 Norte 37 Norte 0 -- -- 57
2019-08-02 09:00:00 25.4 26 Norte 38 Nordeste 0 -- -- 59
2019-08-02 08:00:00 24.3 22 Norte 34 Norte 0 -- -- 61
2019-08-02 07:00:00 23 14 Norte 22 Norte 0 -- -- 82
2019-08-02 06:00:00 23.4 13 Norte 21 Norte 0 -- -- 91
2019-08-02 05:00:00 24 10 Norte 19 Norte 0 -- -- 91
2019-08-02 04:00:00 23.9 10 Norte 14 Norte 0 -- -- 91
2019-08-02 03:00:00 24.3 7 Noroeste 11 Norte 0 -- -- 91
2019-08-02 02:00:00 24.2 3 Oeste 6 Este 0 -- -- 91
2019-08-02 01:00:00 24.5 2 Norte 10 Norte 0 -- -- 90
2019-08-02 00:00:00 24.6 7 Nordeste 15 Norte 0 -- -- 89
2019-08-01 23:00:00 24.9 9 Norte 17 Norte 0 -- -- 87
2019-08-01 22:00:00 25.3 7 Nordeste 28 Nordeste 0 -- -- 83
2019-08-01 21:00:00 25.5 21 Nordeste 28 Nordeste 0 -- -- 80
2019-08-01 20:00:00 26.3 10 Nordeste 19 Norte 0 -- -- 77
2019-08-01 19:00:00 28 17 Norte 24 Nordeste 0 -- -- 68
2019-08-01 18:00:00 30.4 12 Nordeste 23 Norte 0 -- -- 59
2019-08-01 17:00:00 32.7 16 Sudoeste 30 Sudeste 0 -- -- 43
2019-08-01 16:00:00 32.6 16 Sudeste 28 Este 0 -- -- 46
2019-08-01 15:00:00 31.8 15 Este 30 Este 0 -- -- 48
2019-08-01 14:00:00 32.6 15 Este 28 Este 0 -- -- 43
2019-08-01 13:00:00 30.3 17 Este 41 Este 0 -- -- 48
2019-08-01 12:00:00 29.3 32 Este 46 Este 0 -- -- 51
2019-08-01 11:00:00 29.4 19 Este 39 Este 0 -- -- 50
2019-08-01 10:00:00 28 18 Este 32 Este 0 -- -- 53
2019-08-01 09:00:00 25.9 17 Este 28 Este 0 -- -- 58
2019-08-01 08:00:00 24.1 12 Nordeste 23 Nordeste 0 -- -- 65
2019-08-01 07:00:00 23.2 6 Nordeste 31 Nordeste 0 -- -- 66
2019-08-01 06:00:00 22.9 13 Nordeste 27 Nordeste 0 -- -- 68
2019-08-01 05:00:00 22.6 15 Nordeste 24 Nordeste 0 -- -- 76
2019-08-01 04:00:00 22.3 9 Norte 19 Nordeste 0 -- -- 81
2019-08-01 03:00:00 22.4 6 Nordeste 17 Nordeste 0 -- -- 78
2019-08-01 02:00:00 23 10 Nordeste 17 Norte 0 -- -- 75
2019-08-01 01:00:00 22.8 10 Nordeste 23 Este 0 -- -- 72
2019-08-01 00:00:00 22.3 8 Nordeste 16 Nordeste 0 -- -- 73
2019-07-31 23:00:00 22.6 10 Nordeste 16 Nordeste 0 -- -- 70
2019-07-31 22:00:00 23 10 Nordeste 23 Nordeste 0 -- -- 66
2019-07-31 21:00:00 23.3 17 Nordeste 29 Nordeste 0 -- -- 65
2019-07-31 20:00:00 24 17 Nordeste 30 Nordeste 0 -- -- 60
2019-07-31 19:00:00 24.5 20 Nordeste 31 Nordeste 0 -- -- 59
2019-07-31 18:00:00 24.9 22 Nordeste 34 Nordeste 0 -- -- 56
2019-07-31 17:00:00 25.4 21 Nordeste 43 Nordeste 0 -- -- 54
2019-07-31 16:00:00 25.9 26 Nordeste 45 Nordeste 0 -- -- 53
2019-07-31 15:00:00 25.2 25 Nordeste 41 Nordeste 0 -- -- 55
2019-07-31 14:00:00 25.2 22 Nordeste 39 Nordeste 0 -- -- 53
2019-07-31 13:00:00 25.8 24 Nordeste 47 Nordeste 0 -- -- 51
2019-07-31 12:00:00 25.4 30 Nordeste 43 Nordeste 0 -- -- 54
2019-07-31 11:00:00 25.3 25 Nordeste 39 Nordeste 0 -- -- 61
2019-07-31 10:00:00 24.2 29 Nordeste 42 Norte 0 -- -- 66
2019-07-31 09:00:00 23.5 30 Nordeste 44 Nordeste 0 -- -- 68
2019-07-31 08:00:00 23 25 Nordeste 38 Nordeste 0 -- -- 70
2019-07-31 07:00:00 22.3 24 Nordeste 35 Nordeste 0 -- -- 72
2019-07-31 06:00:00 22.5 21 Nordeste 38 Nordeste 0 -- -- 70
2019-07-31 05:00:00 22.7 23 Nordeste 37 Nordeste 0 -- -- 71
2019-07-31 04:00:00 22.9 19 Nordeste 33 Nordeste 0 -- -- 69
2019-07-31 03:00:00 23.1 22 Nordeste 33 Norte 0 -- -- 69
2019-07-31 02:00:00 23.2 18 Nordeste 30 Nordeste 0 -- -- 71
2019-07-31 01:00:00 23.3 18 Nordeste 30 Nordeste 0 -- -- 70
2019-07-31 00:00:00 23.3 16 Nordeste 24 Nordeste 0 -- -- 71
2019-07-30 23:00:00 23.4 14 Nordeste 21 Nordeste 0 -- -- 70
2019-07-30 22:00:00 23.3 6 Nordeste 17 Nordeste 0 -- -- 69
2019-07-30 21:00:00 24.1 10 Nordeste 23 Nordeste 0 -- -- 66
2019-07-30 20:00:00 24.9 15 Nordeste 26 Nordeste 0 -- -- 64
2019-07-30 19:00:00 25.7 16 Nordeste 25 Nordeste 0 -- -- 61
2019-07-30 18:00:00 26.5 17 Nordeste 30 Nordeste 0 -- -- 58
2019-07-30 17:00:00 26.4 17 Nordeste 31 Nordeste 0 -- -- 61
2019-07-30 16:00:00 26.5 20 Nordeste 32 Nordeste 0 -- -- 61
2019-07-30 15:00:00 27.6 18 Nordeste 30 Nordeste 0 -- -- 57
2019-07-30 14:00:00 27.5 18 Nordeste 31 Nordeste 0 -- -- 56
2019-07-30 13:00:00 28.1 18 Nordeste 32 Nordeste 0 -- -- 56
2019-07-30 12:00:00 27.2 22 Nordeste 33 Nordeste 0 -- -- 60
2019-07-30 11:00:00 27.4 18 Nordeste 28 Norte 0 -- -- 68
2019-07-30 10:00:00 27 15 Noroeste 23 Noroeste 0 -- -- 69
2019-07-30 09:00:00 26.6 6 Oeste 11 Oeste 0 -- -- 69
2019-07-30 08:00:00 24.6 2 Sur 6 Oeste 0 -- -- 79
2019-07-30 07:00:00 22.3 5 Sudoeste 10 Sudoeste 0 -- -- 85
2019-07-30 06:00:00 22.6 8 Sur 14 Sudoeste 0 -- -- 83
2019-07-30 05:00:00 22.7 8 Sudoeste 15 Sudoeste 0 -- -- 83
2019-07-30 04:00:00 22.9 12 Sur 14 Sur 0 -- -- 85
2019-07-30 03:00:00 22.9 10 Sur 17 Sudoeste 0 -- -- 84
2019-07-30 02:00:00 22.9 12 Sur 13 Sur 0 -- -- 83
2019-07-30 01:00:00 23.4 3 Sur 16 Sudoeste 0 -- -- 80
2019-07-30 00:00:00 23.6 11 Sudoeste 14 Sur 0 -- -- 78
2019-07-29 23:00:00 23.9 4 Sudoeste 15 Sudoeste 0 -- -- 77
2019-07-29 22:00:00 24.3 12 Sudoeste 20 Sudoeste 0 -- -- 75
2019-07-29 21:00:00 25 12 Sudoeste 22 Sur 0 -- -- 71
2019-07-29 20:00:00 26.3 17 Sur 23 Sur 0 -- -- 66
2019-07-29 19:00:00 28 15 Sudoeste 24 Sudoeste 0 -- -- 58
2019-07-29 18:00:00 28.8 14 Sudoeste 26 Sudoeste 0 -- -- 57
2019-07-29 17:00:00 30.5 10 Sudoeste 22 Sudoeste 0 -- -- 50
2019-07-29 16:00:00 30.5 13 Sudoeste 23 Sur 0 -- -- 46
2019-07-29 15:00:00 30 13 Sudoeste 27 Sur 0 -- -- 38
2019-07-29 14:00:00 29.8 17 Sur 30 Sudoeste 0 -- -- 34
2019-07-29 13:00:00 28.6 19 Sudoeste 30 Sudoeste 0 -- -- 49
2019-07-29 12:00:00 29.2 12 Sur 25 Sudoeste 0 -- -- 45
2019-07-29 11:00:00 28 7 Noroeste 21 Oeste 0 -- -- 46
2019-07-29 10:00:00 26.4 8 Oeste 16 Oeste 0 -- -- 52
2019-07-29 09:00:00 24.9 6 Noroeste 11 Noroeste 0 -- -- 66
2019-07-29 08:00:00 22.3 3 Oeste 9 Oeste 0 -- -- 80
2019-07-29 07:00:00 20.3 6 Sudoeste 8 Oeste 0 -- -- 87
2019-07-29 06:00:00 20.7 3 Sudoeste 12 Sur 0 -- -- 86
2019-07-29 05:00:00 20.9 5 Sur 8 Sur 0 -- -- 85
2019-07-29 04:00:00 20.3 4 Sur 10 Sur 0 -- -- 80
2019-07-29 03:00:00 19.6 4 Sur 5 Sur 0 -- -- 82
2019-07-29 02:00:00 20.9 3 Sur 15 Sur 0 -- -- 76
2019-07-29 01:00:00 21.4 6 Sur 15 Sudeste 0 -- -- 70
2019-07-29 00:00:00 21.5 8 Sudeste 16 Sudeste 0 -- -- 68
2019-07-28 23:00:00 21.7 6 Sudeste 11 Este 0 -- -- 66
2019-07-28 22:00:00 22.1 5 Sudeste 12 Sudeste 0 -- -- 63
2019-07-28 21:00:00 23.1 8 Este 16 Sudeste 0 -- -- 59
2019-07-28 20:00:00 24.7 6 Sudeste 13 Sudeste 0 -- -- 53
2019-07-28 19:00:00 24 7 Este 15 Este 0 -- -- 55
2019-07-28 18:00:00 24.3 12 Nordeste 20 Nordeste 0 -- -- 53
2019-07-28 17:00:00 25.1 9 Este 18 Este 0 -- -- 50
2019-07-28 16:00:00 24 12 Este 24 Norte 0.4 -- -- 55
2019-07-28 15:00:00 23.8 21 Nordeste 29 Nordeste 0 -- -- 59
2019-07-28 14:00:00 23.7 11 Norte 21 Norte 0.2 -- -- 67
2019-07-28 13:00:00 26.1 8 Nordeste 17 Norte 0 -- -- 56
2019-07-28 12:00:00 23.6 8 Norte 19 Norte 0 -- -- 63
2019-07-28 11:00:00 23.9 14 Norte 23 Norte 0 -- -- 60
2019-07-28 10:00:00 24.1 16 Nordeste 22 Nordeste 0 -- -- 60
2019-07-28 09:00:00 22.5 8 Nordeste 13 Nordeste 0 -- -- 77
2019-07-28 08:00:00 20.3 2 Norte 5 Sur 0 -- -- 85
2019-07-28 07:00:00 19.9 3 Nordeste 10 Norte 0 -- -- 83
2019-07-28 06:00:00 19.5 2 Noroeste 20 Nordeste 0 -- -- 84
2019-07-28 05:00:00 19.2 0 Calma 8 Nordeste 0 -- -- 88
2019-07-28 04:00:00 19.3 4 Nordeste 17 Nordeste 0.6 -- -- 87
2019-07-28 03:00:00 19.9 14 Norte 25 Norte 3.2 -- -- 87
2019-07-28 02:00:00 20.9 15 Norte 30 Norte 1.4 -- -- 84
2019-07-28 01:00:00 22.6 22 Norte 36 Norte 0 -- -- 78
2019-07-28 00:00:00 23.6 13 Norte 22 Noroeste 0 -- -- 78
2019-07-27 23:00:00 23.1 8 Noroeste 15 Oeste 0 -- -- 77
2019-07-26 12:00:00 30.9 21 Sur 33 Sudoeste 0 -- -- 48
2019-07-26 11:00:00 31.2 15 Sur 28 Sur 0 -- -- 45
2019-07-26 10:00:00 30.1 17 Sudeste 26 Sudeste 0 -- -- 47
2019-07-26 09:00:00 27.5 11 Sudeste 15 Sudeste 0 -- -- 64
2019-07-26 08:00:00 24.6 7 Sur 14 Sur 0 -- -- 78
2019-07-26 07:00:00 23.7 9 Sur 17 Sur 0 -- -- 83
2019-07-26 06:00:00 23.8 8 Sur 13 Sur 0 -- -- 85
2019-07-26 05:00:00 23.1 4 Sudoeste 8 Sur 0 -- -- 86
2019-07-26 04:00:00 23.7 4 Sudoeste 8 Sur 0 -- -- 84
2019-07-26 03:00:00 23.8 5 Sur 6 Sur 0 -- -- 82
2019-07-26 02:00:00 24 0 Calma 8 Sudoeste 0 -- -- 80
2019-07-26 01:00:00 24.5 7 Sudoeste 14 Sur 0 -- -- 79
2019-07-26 00:00:00 24.9 8 Sur 19 Sur 0 -- -- 73
2019-07-25 23:00:00 26.1 11 Sur 17 Sur 0 -- -- 59
2019-07-25 22:00:00 26.6 10 Sur 18 Sur 0 -- -- 62
2019-07-25 21:00:00 28.7 8 Sur 19 Sur 0 -- -- 50
2019-07-25 20:00:00 30.8 12 Sur 20 Sudeste 0 -- -- 38
2019-07-25 19:00:00 31.9 15 Sur 24 Sudoeste 0 -- -- 36
2019-07-25 18:00:00 32.9 17 Sudoeste 28 Sur 0 -- -- 29
2019-07-25 17:00:00 34.1 17 Sur 33 Sur 0 -- -- 25
2019-07-25 16:00:00 34.3 21 Sudoeste 33 Sudoeste 0 -- -- 28
2019-07-25 15:00:00 35.2 15 Sur 41 Sudoeste 0 -- -- 32
2019-07-25 14:00:00 33.9 18 Este 33 Sudeste 0 -- -- 40
2019-07-25 13:00:00 34.2 13 Sudeste 30 Sudeste 0 -- -- 37
2019-07-25 12:00:00 33.6 12 Sudeste 19 Este 0 -- -- 43
2019-07-25 11:00:00 31.7 8 Sudeste 16 Este 0 -- -- 47
2019-07-25 10:00:00 29.6 6 Sudeste 15 Este 0 -- -- 60
2019-07-25 09:00:00 27 4 Sudeste 8 Sudeste 0 -- -- 78
2019-07-25 08:00:00 24 2 Este 3 Este 0 -- -- 90
2019-07-25 07:00:00 22.6 0 Calma 6 Sudoeste 0 -- -- 92
2019-07-25 06:00:00 22.7 3 Sur 5 Sur 0 -- -- 91
2019-07-25 05:00:00 23 0 Calma 4 Sudoeste 0 -- -- 91
2019-07-25 04:00:00 23.1 2 Sudoeste 9 Sur 0 -- -- 90
2019-07-25 03:00:00 23.9 6 Sudeste 10 Sudeste 0 -- -- 89
2019-07-25 02:00:00 23.9 6 Sur 12 Sur 0 -- -- 89
2019-07-25 01:00:00 24.3 8 Sur 11 Sur 0 -- -- 87
2019-07-25 00:00:00 24.7 5 Sur 13 Sudeste 0 -- -- 84
2019-07-24 23:00:00 25.2 5 Sudeste 18 Sudeste 0 -- -- 82
2019-07-24 22:00:00 25.6 11 Sudeste 19 Sudeste 0 -- -- 80
2019-07-24 21:00:00 26.8 9 Sudeste 19 Sudeste 0 -- -- 72
2019-07-24 20:00:00 28.7 10 Este 21 Nordeste 0 -- -- 62
2019-07-24 19:00:00 29.5 15 Nordeste 23 Nordeste 0 -- -- 58
2019-07-24 18:00:00 30.3 16 Nordeste 27 Nordeste 0 -- -- 60
2019-07-24 17:00:00 30.9 14 Nordeste 27 Nordeste 0 -- -- 58
2019-07-24 16:00:00 31.2 15 Norte 24 Nordeste 0 -- -- 55
2019-07-24 15:00:00 31.9 14 Norte 26 Nordeste 0 -- -- 52
2019-07-24 14:00:00 30.8 17 Nordeste 25 Nordeste 0 -- -- 57
2019-07-24 13:00:00 30.6 13 Nordeste 23 Nordeste 0 -- -- 56
2019-07-24 12:00:00 29.6 14 Nordeste 22 Norte 0 -- -- 62
2019-07-24 11:00:00 29.9 10 Norte 17 Norte 0 -- -- 59
2019-07-24 10:00:00 30.4 3 Este 12 Este 0 -- -- 51
2019-07-24 09:00:00 27.2 6 Sur 14 Sudeste 0 -- -- 66
2019-07-24 08:00:00 24.9 6 Sur 12 Sudeste 0 -- -- 84
2019-07-24 07:00:00 23.7 6 Sur 11 Sur 0 -- -- 87
2019-07-24 06:00:00 23.4 8 Sudeste 14 Sudeste 0 -- -- 85
2019-07-24 05:00:00 22.9 2 Sudoeste 8 Sur 0 -- -- 82
2019-07-24 04:00:00 22.7 2 Sur 4 Sudoeste 0 -- -- 82
2019-07-24 03:00:00 22.5 3 Oeste 4 Noroeste 0 -- -- 81
2019-07-24 02:00:00 23.6 4 Oeste 6 Oeste 0 -- -- 80
2019-07-24 01:00:00 25.2 4 Sudeste 18 Sudeste 0 -- -- 72
2019-07-24 00:00:00 25.5 11 Sudeste 16 Sudeste 0 -- -- 71
2019-07-23 23:00:00 25.8 11 Sudeste 18 Sudeste 0 -- -- 68
2019-07-23 22:00:00 26.3 10 Sudeste 17 Este 0 -- -- 61
2019-07-23 21:00:00 27.4 9 Sudeste 15 Sudeste 0 -- -- 55
2019-07-23 20:00:00 29.5 10 Sudeste 18 Sur 0 -- -- 49
2019-07-23 19:00:00 32.2 9 Sur 24 Norte 0 -- -- 36
2019-07-23 18:00:00 32.3 12 Nordeste 20 Nordeste 0 -- -- 41
2019-07-23 17:00:00 32.5 12 Nordeste 21 Norte 0 -- -- 40
2019-07-23 16:00:00 32.4 13 Nordeste 22 Nordeste 0 -- -- 38
2019-07-23 15:00:00 33 15 Nordeste 23 Norte 0 -- -- 31
2019-07-23 14:00:00 33.1 12 Norte 25 Noroeste 0 -- -- 39
2019-07-23 13:00:00 33.5 10 Sudeste 23 Sudoeste 0 -- -- 33
2019-07-23 12:00:00 32.9 15 Sur 26 Sudoeste 0 -- -- 32
2019-07-23 11:00:00 33.6 7 Este 17 Sudoeste 0 -- -- 26
2019-07-23 10:00:00 30.5 9 Sur 16 Sur 0 -- -- 29
2019-07-23 09:00:00 28.8 4 Sudeste 8 Sur 0 -- -- 39
2019-07-23 08:00:00 24.7 2 Sur 8 Sur 0 -- -- 72
2019-07-23 07:00:00 22.6 4 Sur 8 Sur 0 -- -- 81
2019-07-23 06:00:00 22.3 3 Sur 6 Sudoeste 0 -- -- 85
2019-07-23 05:00:00 23.2 6 Sur 12 Sudeste 0 -- -- 85
2019-07-23 04:00:00 23.6 8 Sur 12 Sudeste 0 -- -- 84
2019-07-23 03:00:00 23.8 6 Sudeste 13 Sudeste 0 -- -- 82
2019-07-23 02:00:00 23.9 6 Sur 9 Sur 0 -- -- 79
2019-07-23 01:00:00 24.1 6 Sur 10 Sur 0 -- -- 76
2019-07-23 00:00:00 24.6 6 Sur 10 Sur 0 -- -- 72
2019-07-22 23:00:00 24.8 6 Sudoeste 9 Sur 0 -- -- 72
2019-07-22 22:00:00 25.7 6 Sudoeste 13 Sur 0 -- -- 69
2019-07-22 21:00:00 27.1 9 Sudoeste 14 Sudoeste 0 -- -- 59
2019-07-22 20:00:00 29.3 10 Sur 14 Sudoeste 0 -- -- 52
2019-07-22 19:00:00 31.3 10 Sur 22 Sudoeste 0 -- -- 40
2019-07-22 18:00:00 32 13 Sudoeste 24 Sudoeste 0 -- -- 38
2019-07-22 17:00:00 33.2 18 Sudoeste 26 Sudoeste 0 -- -- 29
2019-07-22 16:00:00 33.8 18 Sur 29 Sur 0 -- -- 29
2019-07-22 15:00:00 35.9 5 Nordeste 22 Sudeste 0 -- -- 25
2019-07-22 14:00:00 35.1 12 Sudeste 26 Sudeste 0 -- -- 32
2019-07-22 13:00:00 34.6 9 Nordeste 22 Nordeste 0 -- -- 23
2019-07-22 12:00:00 34 8 Este 21 Este 0 -- -- 28
2019-07-22 11:00:00 32.7 8 Este 17 Este 0 -- -- 34
2019-07-22 10:00:00 31 7 Sudeste 13 Sudeste 0 -- -- 38
2019-07-22 09:00:00 27.1 8 Sur 14 Sudeste 0 -- -- 60
2019-07-22 08:00:00 24.7 0 Calma 7 Sudeste 0 -- -- 73
2019-07-22 07:00:00 21.5 4 Oeste 7 Sudoeste 0 -- -- 89
2019-07-22 06:00:00 23 3 Norte 5 Norte 0 -- -- 90
2019-07-22 05:00:00 23.3 2 Noroeste 6 Norte 0 -- -- 88
2019-07-22 04:00:00 22.2 4 Norte 7 Nordeste 0 -- -- 82
2019-07-22 03:00:00 22 0 Calma 4 Sur 0 -- -- 71
2019-07-22 02:00:00 22.2 0 Calma 4 Sudeste 0 -- -- 66
2019-07-22 01:00:00 22.6 2 Oeste 9 Sur 0 -- -- 66
2019-07-22 00:00:00 24 8 Sudeste 10 Sudeste 0 -- -- 56
2019-07-21 23:00:00 24.4 2 Sudoeste 5 Oeste 0 -- -- 69
2019-07-21 22:00:00 25.7 3 Nordeste 8 Nordeste 0 -- -- 65
2019-07-21 21:00:00 27.2 6 Norte 10 Noroeste 0 -- -- 64
2019-07-21 20:00:00 28.8 8 Norte 18 Norte 0 -- -- 60
2019-07-21 19:00:00 30.8 8 Norte 23 Este 0 -- -- 52
2019-07-21 18:00:00 32.4 15 Este 27 Este 0 -- -- 37
2019-07-21 17:00:00 32.2 15 Sudeste 26 Sudeste 0 -- -- 36
2019-07-21 16:00:00 32.1 18 Sudeste 33 Este 0 -- -- 37
2019-07-21 15:00:00 32.6 22 Este 35 Este 0 -- -- 41
2019-07-21 14:00:00 33.2 17 Este 32 Este 0 -- -- 34
2019-07-21 13:00:00 32.7 15 Sudeste 30 Este 0 -- -- 33
2019-07-21 12:00:00 32.3 17 Este 30 Este 0 -- -- 32
2019-07-21 11:00:00 30.8 16 Este 26 Este 0 -- -- 38
2019-07-21 10:00:00 28.9 14 Este 24 Este 0 -- -- 51
2019-07-21 09:00:00 26.9 11 Este 18 Nordeste 0 -- -- 68
2019-07-21 08:00:00 24.5 8 Nordeste 17 Este 0 -- -- 85
2019-07-21 07:00:00 22.6 2 Norte 8 Nordeste 0 -- -- 89
2019-07-21 06:00:00 22 5 Nordeste 9 Nordeste 0 -- -- 88
2019-07-21 05:00:00 22.2 4 Nordeste 9 Nordeste 0 -- -- 87
2019-07-21 04:00:00 22.4 3 Nordeste 7 Oeste 0 -- -- 87
2019-07-21 03:00:00 22.2 2 Noroeste 4 Oeste 0 -- -- 85
2019-07-21 02:00:00 22.6 0 Calma 6 Sudeste 0 -- -- 83
2019-07-21 01:00:00 23.3 4 Sur 8 Sudeste 0 -- -- 81
2019-07-21 00:00:00 23.8 4 Sur 13 Este 0 -- -- 79
2019-07-20 23:00:00 24.2 5 Este 15 Este 0 -- -- 78
2019-07-20 22:00:00 24.7 8 Este 16 Sudeste 0 -- -- 74
2019-07-20 21:00:00 25.7 8 Este 21 Este 0 -- -- 65
2019-07-20 20:00:00 27.2 16 Este 26 Este 0 -- -- 56
2019-07-20 19:00:00 28.7 19 Este 27 Sudeste 0 -- -- 49
2019-07-20 18:00:00 29.1 18 Sudeste 31 Este 0 -- -- 53
2019-07-20 17:00:00 29.9 18 Sudeste 32 Este 0 -- -- 48
2019-07-20 16:00:00 30.7 21 Sudeste 30 Sudeste 0 -- -- 41
2019-07-20 15:00:00 31 19 Este 31 Este 0 -- -- 42
2019-07-20 14:00:00 31.5 16 Este 32 Este 0 -- -- 40
2019-07-20 13:00:00 31.5 18 Este 29 Este 0 -- -- 41
2019-07-20 12:00:00 30.8 15 Sudeste 27 Este 0 -- -- 45
2019-07-20 11:00:00 30.2 15 Este 25 Sudeste 0 -- -- 46
2019-07-20 10:00:00 29.4 10 Sudeste 18 Este 0 -- -- 49
2019-07-20 09:00:00 26.5 11 Este 18 Sudeste 0 -- -- 64
2019-07-20 08:00:00 24.8 2 Sur 14 Nordeste 0 -- -- 73
2019-07-20 07:00:00 22.3 3 Sur 7 Sur 0 -- -- 82
2019-07-20 06:00:00 22.7 4 Sudoeste 8 Sur 0 -- -- 80
2019-07-20 05:00:00 22.7 3 Oeste 9 Sudeste 0 -- -- 79
2019-07-20 04:00:00 22.7 5 Sur 14 Sur 0 -- -- 78
2019-07-20 03:00:00 22.9 3 Sudoeste 13 Sudeste 0 -- -- 77
2019-07-20 02:00:00 23 8 Sur 13 Sur 0 -- -- 77
2019-07-20 01:00:00 23.3 4 Oeste 10 Sur 0 -- -- 76
2019-07-20 00:00:00 23.4 3 Sur 7 Norte 0 -- -- 74
2019-07-19 23:00:00 24 3 Sur 12 Sur 0 -- -- 70
2019-07-19 22:00:00 24.6 6 Sur 21 Sudeste 0 -- -- 66
2019-07-19 21:00:00 25.9 11 Sudeste 22 Sudeste 0 -- -- 59
2019-07-19 20:00:00 27.3 12 Sur 26 Sur 0 -- -- 56
2019-07-19 19:00:00 28.2 16 Sur 27 Sudeste 0 -- -- 54
2019-07-19 18:00:00 29.6 13 Sur 24 Sudeste 0 -- -- 49
2019-07-19 17:00:00 29.8 12 Sudoeste 28 Sudoeste 0 -- -- 50
2019-07-19 16:00:00 29 18 Sudoeste 29 Sudoeste 0 -- -- 53
2019-07-19 15:00:00 29 15 Sudoeste 31 Sudoeste 0 -- -- 52
2019-07-19 14:00:00 27.9 19 Sudoeste 31 Sudoeste 0 -- -- 57
2019-07-19 13:00:00 29.7 8 Norte 26 Nordeste 0 -- -- 49
2019-07-19 12:00:00 28.3 14 Nordeste 26 Nordeste 0 -- -- 55
2019-07-19 11:00:00 27.3 11 Nordeste 17 Nordeste 0 -- -- 57
2019-07-19 10:00:00 27.9 7 Norte 13 Norte 0 -- -- 50
2019-07-19 09:00:00 26.3 4 Nordeste 8 Este 0 -- -- 66
2019-07-19 08:00:00 23.5 0 Calma 4 Nordeste 0 -- -- 78
2019-07-19 07:00:00 21.2 2 Sudoeste 6 Sur 0 -- -- 86
2019-07-19 06:00:00 21.1 5 Sur 7 Sur 0 -- -- 85
2019-07-19 05:00:00 20.9 4 Sudoeste 4 Sudoeste 0 -- -- 84
2019-07-19 04:00:00 20.9 0 Calma 4 Oeste 0 -- -- 83
2019-07-19 03:00:00 21.6 2 Sur 8 Sudoeste 0 -- -- 79
2019-07-19 02:00:00 22.2 3 Sur 7 Sur 0 -- -- 78
2019-07-19 01:00:00 22.1 2 Sudoeste 8 Sudeste 0 -- -- 77
2019-07-19 00:00:00 23 5 Sudeste 8 Sur 0 -- -- 73